Terminal Aerodrome Forecast
Issued by NWS La Crosse, WI

Home | Current Version | Previous Version | Text Only | Print | Product List | Glossary On
Versions: 1 2 3 4 5 6 7 8 9 10 11 12 13 14 15 16 17 18 19 20 21 22 23 24 25 26 27
000
FTUS43 KARX 220018 AAA
TAFLSE
TAF AMD
KLSE 220018Z 2200/2224 VRB03KT 1/4SM FG VV002
     FM221500 VRB03KT 1SM BR OVC006
     FM221800 VRB03KT 3SM BR OVC008=

USA.gov is the U.S. government's official web portal to all federal, state and local government web resources and services.